Time;durP1;ratioP1;P1;durP2;ratioP2;P2;SDS_P1;SDS_P2;PMS_P1;PMS_P2;Temp;Humidity;BMP_temperature;BMP_pressure;BME280_temperature;BME280_humidity;BME280_pressure;Samples;Min_cycle;Max_cycle;Signal;HPM_P1;HPM_P2
2021/12/29 00:01:49;;;;;;;91.40;37.60;;;-0.20;99.90;;;;;;5032374;28;20237;-79
2021/12/29 00:04:16;;;;;;;111.30;44.63;;;-0.20;99.90;;;;;;5032883;28;20205;-78
2021/12/29 00:06:43;;;;;;;101.43;41.37;;;-0.20;99.90;;;;;;5032884;28;20199;-79
2021/12/29 00:09:11;;;;;;;100.80;39.90;;;-0.20;99.90;;;;;;5032909;28;20248;-79
2021/12/29 00:11:40;;;;;;;91.77;37.90;;;-0.20;99.90;;;;;;5032909;28;20666;-79
2021/12/29 00:14:10;;;;;;;104.23;43.87;;;-0.20;99.90;;;;;;5033265;28;20189;-79
2021/12/29 00:16:37;;;;;;;94.77;38.93;;;-0.10;99.90;;;;;;5033036;28;20310;-79
2021/12/29 00:19:04;;;;;;;109.27;45.77;;;-0.20;99.90;;;;;;5043602;28;20591;-79
2021/12/29 00:21:32;;;;;;;83.80;33.97;;;-0.20;99.90;;;;;;5052092;28;20602;-79
2021/12/29 00:23:59;;;;;;;117.90;46.83;;;-0.10;99.90;;;;;;5052795;28;20207;-78
2021/12/29 00:26:27;;;;;;;104.63;42.30;;;-0.20;99.90;;;;;;5052789;28;20250;-79
2021/12/29 00:28:58;;;;;;;103.73;40.70;;;-0.20;99.90;;;;;;5052426;28;20196;-79
2021/12/29 00:31:26;;;;;;;110.43;40.90;;;-0.10;99.90;;;;;;5052536;28;20192;-79
2021/12/29 00:33:53;;;;;;;107.70;42.50;;;-0.20;99.90;;;;;;5052222;28;20193;-79
2021/12/29 00:36:20;;;;;;;117.33;43.70;;;-0.20;99.90;;;;;;5052611;28;20213;-78
2021/12/29 00:38:47;;;;;;;107.87;42.90;;;-0.10;99.90;;;;;;5052490;28;20197;-79
2021/12/29 00:41:15;;;;;;;104.63;43.90;;;-0.10;99.90;;;;;;5052779;28;20234;-79
2021/12/29 00:43:42;;;;;;;112.73;43.93;;;-0.10;99.90;;;;;;5052796;28;20250;-79
2021/12/29 00:46:12;;;;;;;91.47;36.33;;;-0.10;99.90;;;;;;5052872;28;20193;-79
2021/12/29 00:48:42;;;;;;;110.60;43.80;;;-0.10;99.90;;;;;;5052781;28;20188;-79
2021/12/29 00:51:10;;;;;;;89.37;37.03;;;-0.10;99.90;;;;;;5052835;28;20607;-79
2021/12/29 00:53:38;;;;;;;112.30;42.53;;;-0.10;99.90;;;;;;5052574;28;20235;-79
2021/12/29 00:56:06;;;;;;;102.03;38.93;;;-0.10;99.90;;;;;;5052361;28;20252;-79
2021/12/29 00:58:33;;;;;;;108.83;42.23;;;-0.10;99.90;;;;;;5052471;28;20193;-78
2021/12/29 01:01:01;;;;;;;103.13;41.77;;;-0.10;99.90;;;;;;5051812;28;20653;-78
2021/12/29 01:03:29;;;;;;;100.33;39.13;;;-0.10;99.90;;;;;;5052051;28;20243;-79
2021/12/29 01:05:56;;;;;;;108.53;43.03;;;-0.10;99.90;;;;;;5052295;28;20231;-78
2021/12/29 01:08:23;;;;;;;103.63;44.07;;;-0.10;99.90;;;;;;5052016;28;20192;-78
2021/12/29 01:10:50;;;;;;;99.80;40.60;;;-0.10;99.90;;;;;;5052220;28;20201;-79
2021/12/29 01:13:19;;;;;;;118.23;43.43;;;-0.10;99.90;;;;;;5052292;28;20200;-78
2021/12/29 01:15:57;;;;;;;113.53;43.37;;;-0.10;99.90;;;;;;5052108;28;20232;-78
2021/12/29 01:18:25;;;;;;;116.93;45.27;;;0.00;99.90;;;;;;5051301;28;20274;-79
2021/12/29 01:20:54;;;;;;;105.83;41.63;;;-0.10;99.90;;;;;;5052270;28;20189;-79
2021/12/29 01:23:21;;;;;;;101.87;39.50;;;-0.10;99.90;;;;;;5051795;28;20532;-78
2021/12/29 01:25:48;;;;;;;115.47;44.73;;;0.00;99.90;;;;;;5051780;28;20711;-79
2021/12/29 01:28:15;;;;;;;104.23;41.57;;;0.00;99.90;;;;;;5052265;28;20703;-79
2021/12/29 01:30:43;;;;;;;103.87;43.03;;;0.00;99.90;;;;;;5051741;28;20262;-79
2021/12/29 01:33:10;;;;;;;111.47;42.57;;;0.00;99.90;;;;;;5052114;28;20279;-79
2021/12/29 01:35:37;;;;;;;101.93;42.13;;;0.00;99.90;;;;;;5055897;28;20192;-79
2021/12/29 01:38:07;;;;;;;111.00;42.93;;;0.00;99.90;;;;;;5055573;28;20200;-79
2021/12/29 01:40:36;;;;;;;97.97;40.70;;;0.10;99.90;;;;;;5055908;28;20192;-79
2021/12/29 01:43:04;;;;;;;101.43;41.07;;;0.10;99.90;;;;;;5055508;28;20669;-79
2021/12/29 01:45:31;;;;;;;100.13;41.20;;;0.10;99.90;;;;;;5055819;28;20301;-79
2021/12/29 01:48:00;;;;;;;115.60;41.20;;;0.10;99.90;;;;;;5055692;28;20242;-79
2021/12/29 01:50:29;;;;;;;109.27;42.80;;;0.10;99.90;;;;;;5055648;28;20188;-79
2021/12/29 01:53:01;;;;;;;104.60;41.07;;;0.10;99.90;;;;;;5055550;28;20197;-78
2021/12/29 01:55:31;;;;;;;104.03;40.70;;;0.10;99.90;;;;;;5055358;28;20218;-79
2021/12/29 01:57:59;;;;;;;101.23;39.93;;;0.10;99.90;;;;;;5055015;28;20699;-79
2021/12/29 02:00:29;;;;;;;92.80;36.90;;;0.10;99.90;;;;;;5055031;28;20273;-78
2021/12/29 02:02:56;;;;;;;92.17;35.87;;;0.10;99.90;;;;;;5055136;28;20184;-79
2021/12/29 02:05:23;;;;;;;110.67;44.17;;;0.10;99.90;;;;;;5055443;28;20599;-79
2021/12/29 02:07:51;;;;;;;107.77;41.30;;;0.10;99.90;;;;;;5055299;28;20251;-79
2021/12/29 02:10:20;;;;;;;112.97;42.97;;;0.10;99.90;;;;;;5054893;28;20283;-79
2021/12/29 02:12:49;;;;;;;111.43;42.87;;;0.10;99.90;;;;;;5055442;28;20223;-79
2021/12/29 02:15:16;;;;;;;108.20;42.23;;;0.10;99.90;;;;;;5055577;28;20242;-79
2021/12/29 02:17:43;;;;;;;96.53;39.40;;;0.10;99.90;;;;;;5055007;28;20290;-79
2021/12/29 02:20:12;;;;;;;95.43;38.57;;;0.10;99.90;;;;;;5055165;28;20232;-79
2021/12/29 02:22:44;;;;;;;105.60;40.70;;;0.10;99.90;;;;;;5054742;28;20192;-78
2021/12/29 02:25:34;;;;;;;103.07;40.83;;;0.10;99.90;;;;;;5054706;28;20196;-79
2021/12/29 02:28:03;;;;;;;104.47;41.93;;;0.10;99.90;;;;;;5055028;28;20188;-79
2021/12/29 02:30:30;;;;;;;104.90;41.40;;;0.10;99.90;;;;;;5053625;28;20746;-79
2021/12/29 02:33:02;;;;;;;102.57;42.53;;;0.10;99.90;;;;;;5054855;28;20196;-79
2021/12/29 02:35:30;;;;;;;103.27;43.60;;;0.10;99.90;;;;;;5054834;28;20246;-79
2021/12/29 02:37:59;;;;;;;114.57;42.23;;;0.10;99.90;;;;;;5054351;28;20689;-79
2021/12/29 02:40:26;;;;;;;105.20;41.33;;;0.10;99.90;;;;;;5054668;28;20275;-79
2021/12/29 02:42:53;;;;;;;98.87;39.07;;;0.10;99.90;;;;;;5054726;28;20192;-79
2021/12/29 02:45:22;;;;;;;86.40;31.90;;;0.10;99.90;;;;;;5054481;28;20238;-79
2021/12/29 02:47:50;;;;;;;100.63;38.17;;;0.10;99.90;;;;;;5054844;28;20241;-79
2021/12/29 02:50:18;;;;;;;82.67;32.17;;;0.10;99.90;;;;;;5054734;28;20200;-79
2021/12/29 02:52:48;;;;;;;83.30;32.03;;;0.10;99.90;;;;;;5054758;28;20275;-79
2021/12/29 02:55:15;;;;;;;98.50;39.80;;;0.10;99.90;;;;;;5054849;28;20188;-79
2021/12/29 02:57:43;;;;;;;103.63;39.97;;;0.10;99.90;;;;;;5054403;28;20216;-79
2021/12/29 03:00:14;;;;;;;99.93;39.43;;;0.10;99.90;;;;;;5054004;28;20254;-79
2021/12/29 03:02:41;;;;;;;104.83;41.50;;;0.10;99.90;;;;;;5054012;28;20591;-79
2021/12/29 03:05:08;;;;;;;95.33;37.43;;;0.10;99.90;;;;;;5054252;28;20197;-79
2021/12/29 03:07:35;;;;;;;104.47;41.77;;;0.10;99.90;;;;;;5054119;28;20556;-79
2021/12/29 03:10:04;;;;;;;106.93;40.80;;;0.20;99.90;;;;;;5053761;28;20193;-79
2021/12/29 03:12:31;;;;;;;102.30;38.87;;;0.20;99.90;;;;;;5054097;28;20189;-79
2021/12/29 03:14:58;;;;;;;111.07;42.37;;;0.10;99.90;;;;;;5054129;28;20223;-79
2021/12/29 03:17:27;;;;;;;101.43;41.93;;;0.10;99.90;;;;;;5054033;28;20220;-79
2021/12/29 03:19:54;;;;;;;102.80;40.00;;;0.10;99.90;;;;;;5054115;28;20224;-79
2021/12/29 03:22:21;;;;;;;112.73;42.90;;;0.10;99.90;;;;;;5054104;28;20250;-79
2021/12/29 03:24:48;;;;;;;101.93;41.27;;;0.10;99.90;;;;;;5053691;28;20235;-79
2021/12/29 03:27:16;;;;;;;105.20;39.47;;;0.10;99.90;;;;;;5053535;28;20196;-79
2021/12/29 03:29:43;;;;;;;108.97;40.17;;;0.10;99.90;;;;;;5053511;28;20192;-79
2021/12/29 03:32:20;;;;;;;114.10;40.77;;;0.20;99.90;;;;;;5053270;28;20263;-79
2021/12/29 03:34:47;;;;;;;114.47;40.43;;;0.20;99.90;;;;;;5053686;28;20243;-79
2021/12/29 03:37:14;;;;;;;108.77;40.50;;;0.10;99.90;;;;;;5053527;28;20224;-79
2021/12/29 03:39:41;;;;;;;105.77;40.33;;;0.20;99.90;;;;;;5053564;28;20197;-79
2021/12/29 03:42:08;;;;;;;101.70;40.30;;;0.20;99.90;;;;;;5053186;28;20200;-79
2021/12/29 03:44:37;;;;;;;101.70;40.47;;;0.20;99.90;;;;;;5053467;28;20238;-79
2021/12/29 03:47:04;;;;;;;110.60;39.77;;;0.20;99.90;;;;;;5053692;28;20197;-79
2021/12/29 03:49:31;;;;;;;107.57;39.93;;;0.20;99.90;;;;;;5053502;28;20197;-79
2021/12/29 03:51:58;;;;;;;113.23;41.20;;;0.10;99.90;;;;;;5053042;28;20603;-79
2021/12/29 03:54:25;;;;;;;107.07;39.47;;;0.20;99.90;;;;;;5053311;28;20199;-79
2021/12/29 03:56:52;;;;;;;107.03;40.83;;;0.20;99.90;;;;;;5052483;28;20685;-79
2021/12/29 03:59:19;;;;;;;112.27;40.30;;;0.20;99.90;;;;;;5053639;28;20196;-79
2021/12/29 04:01:50;;;;;;;108.63;41.63;;;0.20;99.90;;;;;;5051834;28;20194;-78
2021/12/29 04:04:17;;;;;;;107.80;39.77;;;0.20;99.90;;;;;;5053153;28;20271;-79
2021/12/29 04:06:44;;;;;;;108.63;40.47;;;0.20;99.90;;;;;;5052893;28;20204;-79
2021/12/29 04:09:11;;;;;;;109.47;39.97;;;0.20;99.90;;;;;;5052591;28;20319;-79
2021/12/29 04:11:38;;;;;;;120.17;42.83;;;0.20;99.90;;;;;;5053010;28;20192;-79
2021/12/29 04:14:05;;;;;;;118.53;41.67;;;0.20;99.90;;;;;;5052630;28;20196;-79
2021/12/29 04:16:36;;;;;;;120.17;44.03;;;0.20;99.90;;;;;;5052933;28;20611;-79
2021/12/29 04:19:14;;;;;;;105.87;39.67;;;0.20;99.90;;;;;;5053069;28;20622;-79
2021/12/29 04:21:43;;;;;;;111.63;40.60;;;0.20;99.90;;;;;;5052492;28;20184;-79
2021/12/29 04:24:10;;;;;;;106.00;41.60;;;0.20;99.90;;;;;;5052430;28;20192;-79
2021/12/29 04:26:39;;;;;;;115.73;39.50;;;0.20;99.90;;;;;;5052132;28;20200;-78
2021/12/29 04:29:08;;;;;;;81.50;28.93;;;0.30;99.90;;;;;;5052318;28;20631;-79
2021/12/29 04:31:35;;;;;;;81.43;27.80;;;0.20;99.90;;;;;;5051906;28;20214;-79
2021/12/29 04:34:02;;;;;;;94.87;35.73;;;0.30;99.90;;;;;;5052620;28;20246;-79
2021/12/29 04:36:30;;;;;;;94.93;32.13;;;0.30;99.90;;;;;;5052216;28;20262;-79
2021/12/29 04:38:58;;;;;;;105.80;38.80;;;0.30;99.90;;;;;;5052667;28;20192;-78
2021/12/29 04:41:25;;;;;;;106.90;38.53;;;0.30;99.90;;;;;;5052655;28;20232;-79
2021/12/29 04:43:52;;;;;;;104.93;35.73;;;0.40;99.90;;;;;;5052577;28;20259;-79
2021/12/29 04:46:27;;;;;;;105.33;37.10;;;0.40;99.90;;;;;;5052680;28;20192;-79
2021/12/29 04:49:00;;;;;;;92.70;35.67;;;0.40;99.90;;;;;;5052907;28;20180;-79
2021/12/29 04:51:34;;;;;;;102.37;37.67;;;0.40;99.90;;;;;;5052682;28;20219;-79
2021/12/29 04:54:04;;;;;;;114.90;41.27;;;0.40;99.90;;;;;;5052601;28;20267;-79
2021/12/29 04:56:31;;;;;;;104.07;39.30;;;0.50;99.90;;;;;;5052207;28;20531;-79
2021/12/29 04:58:58;;;;;;;102.03;38.73;;;0.40;99.90;;;;;;5052099;28;20216;-79
2021/12/29 05:01:25;;;;;;;107.93;40.73;;;0.50;99.90;;;;;;5052365;28;20184;-79
2021/12/29 05:03:53;;;;;;;123.17;41.40;;;0.50;99.90;;;;;;5052335;28;20193;-78
2021/12/29 05:09:06;;;;;;;115.07;42.13;;;0.50;99.90;;;;;;5053871;28;20295;-78
2021/12/29 05:11:33;;;;;;;109.70;41.57;;;0.60;99.90;;;;;;5056435;28;20188;-79
2021/12/29 05:14:00;;;;;;;114.37;40.43;;;0.50;99.90;;;;;;5056302;28;20188;-79
2021/12/29 05:16:28;;;;;;;131.27;42.03;;;0.60;99.90;;;;;;5056547;28;20200;-79
2021/12/29 05:18:56;;;;;;;117.20;40.87;;;0.60;99.90;;;;;;5056419;28;20236;-79
2021/12/29 05:21:25;;;;;;;104.57;39.57;;;0.60;99.90;;;;;;5056577;28;20193;-79
2021/12/29 05:23:52;;;;;;;114.63;38.83;;;0.60;99.90;;;;;;5056210;28;20223;-79
2021/12/29 05:26:20;;;;;;;119.53;41.73;;;0.60;99.90;;;;;;5055725;28;20246;-78
2021/12/29 05:28:47;;;;;;;114.77;39.50;;;0.60;99.90;;;;;;5056152;28;20197;-79
2021/12/29 05:31:14;;;;;;;119.73;41.03;;;0.60;99.90;;;;;;5055734;28;20189;-79
2021/12/29 05:33:41;;;;;;;109.43;40.23;;;0.60;99.90;;;;;;5055957;28;20196;-78
2021/12/29 05:36:08;;;;;;;120.83;40.30;;;0.60;99.90;;;;;;5055595;28;20664;-79
2021/12/29 05:38:35;;;;;;;121.17;42.23;;;0.60;99.90;;;;;;5055896;28;20274;-79
2021/12/29 05:41:02;;;;;;;117.67;41.50;;;0.60;99.90;;;;;;5055761;28;20193;-79
2021/12/29 05:43:31;;;;;;;133.93;41.93;;;0.60;99.90;;;;;;5055690;28;20201;-79
2021/12/29 05:45:58;;;;;;;112.67;39.37;;;0.60;99.90;;;;;;5056073;28;20192;-79
2021/12/29 05:48:25;;;;;;;120.20;40.20;;;0.60;99.90;;;;;;5055835;28;20196;-79
2021/12/29 05:50:55;;;;;;;117.17;41.17;;;0.60;99.90;;;;;;5055333;28;20645;-78
2021/12/29 05:53:22;;;;;;;115.80;39.50;;;0.70;99.90;;;;;;5055674;28;20188;-78
2021/12/29 05:55:49;;;;;;;118.17;38.90;;;0.70;99.90;;;;;;5055627;28;20192;-79
2021/12/29 05:58:16;;;;;;;125.13;41.60;;;0.70;99.90;;;;;;5055078;28;20747;-78
2021/12/29 06:00:44;;;;;;;153.83;42.47;;;0.70;99.90;;;;;;5054420;28;20189;-79
2021/12/29 06:03:11;;;;;;;118.77;40.90;;;0.80;99.90;;;;;;5055051;28;20250;-79
2021/12/29 06:05:39;;;;;;;124.00;40.47;;;0.70;99.90;;;;;;5055055;28;20727;-79
2021/12/29 06:08:07;;;;;;;121.53;40.57;;;0.80;99.90;;;;;;5054690;28;20188;-78
2021/12/29 06:10:35;;;;;;;144.83;42.73;;;0.80;99.90;;;;;;5054935;28;20666;-79
2021/12/29 06:13:02;;;;;;;138.63;42.20;;;0.80;99.90;;;;;;5055282;28;20189;-78
2021/12/29 06:15:29;;;;;;;136.10;41.00;;;0.80;99.90;;;;;;5055142;28;20192;-79
2021/12/29 06:17:57;;;;;;;132.30;41.53;;;0.80;99.90;;;;;;5054680;28;20216;-79
2021/12/29 06:20:24;;;;;;;152.30;41.33;;;0.80;99.90;;;;;;5054448;28;20181;-79
2021/12/29 06:22:51;;;;;;;137.97;42.83;;;0.80;99.90;;;;;;5054818;28;20204;-79
2021/12/29 06:25:19;;;;;;;148.93;40.23;;;0.80;99.90;;;;;;5055050;28;20204;-78
2021/12/29 06:27:46;;;;;;;146.90;43.47;;;0.80;99.90;;;;;;5054685;28;20200;-79
2021/12/29 06:30:17;;;;;;;143.73;41.77;;;0.80;99.90;;;;;;5054303;28;20188;-79
2021/12/29 06:32:45;;;;;;;155.10;40.97;;;0.80;99.90;;;;;;5054577;28;20251;-78
2021/12/29 06:35:14;;;;;;;148.10;40.83;;;0.80;99.90;;;;;;5054750;28;20239;-78
2021/12/29 06:37:42;;;;;;;144.97;42.73;;;0.80;99.90;;;;;;5054757;28;20216;-79
2021/12/29 06:40:10;;;;;;;146.17;42.20;;;0.80;99.90;;;;;;5054658;28;20192;-78
2021/12/29 06:42:37;;;;;;;162.93;43.17;;;0.80;99.90;;;;;;5054520;28;20555;-78
2021/12/29 06:45:04;;;;;;;131.10;42.03;;;0.80;99.90;;;;;;5054590;28;20189;-79
2021/12/29 06:47:31;;;;;;;149.27;42.27;;;0.80;99.90;;;;;;5054381;28;20223;-78
2021/12/29 06:50:02;;;;;;;128.63;40.67;;;0.80;99.90;;;;;;5067323;28;20265;-80
2021/12/29 06:52:31;;;;;;;134.63;39.83;;;0.90;99.90;;;;;;5054837;28;20198;-78
2021/12/29 06:54:58;;;;;;;135.83;40.17;;;0.90;99.90;;;;;;5054104;28;20242;-78
2021/12/29 06:57:25;;;;;;;136.27;40.30;;;0.90;99.90;;;;;;5059806;28;20726;-79
2021/12/29 06:59:52;;;;;;;135.43;39.27;;;0.90;99.90;;;;;;5063504;28;20185;-80
2021/12/29 07:02:22;;;;;;;154.70;40.90;;;0.90;99.90;;;;;;5062354;28;20196;-78
2021/12/29 07:04:49;;;;;;;149.63;41.80;;;0.90;99.90;;;;;;5056734;28;20196;-81
2021/12/29 07:07:16;;;;;;;142.73;40.83;;;0.90;99.90;;;;;;5054392;28;20201;-82
2021/12/29 07:09:45;;;;;;;137.33;39.07;;;0.90;99.90;;;;;;5055753;28;20238;-80
2021/12/29 07:12:13;;;;;;;128.27;38.63;;;0.90;99.90;;;;;;5067094;28;20280;-79
2021/12/29 07:14:40;;;;;;;156.47;41.30;;;0.90;99.90;;;;;;5065536;28;20197;-81
2021/12/29 07:17:12;;;;;;;149.37;41.13;;;0.90;99.90;;;;;;5066534;28;20276;-82
2021/12/29 07:19:39;;;;;;;146.20;41.40;;;0.90;99.90;;;;;;5054898;28;20289;-78
2021/12/29 07:22:06;;;;;;;166.13;41.20;;;0.90;99.90;;;;;;5053763;28;20228;-81
2021/12/29 07:24:34;;;;;;;145.40;39.10;;;1.00;99.90;;;;;;5053838;28;20296;-80
2021/12/29 07:27:04;;;;;;;154.77;40.53;;;1.00;99.90;;;;;;5053849;28;20196;-81
2021/12/29 07:29:31;;;;;;;141.00;40.67;;;1.00;99.90;;;;;;5054236;28;20192;-79
2021/12/29 07:31:58;;;;;;;159.77;40.47;;;1.00;99.90;;;;;;5052529;28;20601;-81
2021/12/29 07:34:26;;;;;;;177.90;43.00;;;1.10;99.90;;;;;;5054753;28;20617;-80
2021/12/29 07:36:54;;;;;;;143.63;41.20;;;1.10;99.90;;;;;;5054238;28;20244;-80
2021/12/29 07:39:21;;;;;;;159.17;43.70;;;1.10;99.90;;;;;;5042263;28;20212;-82
2021/12/29 07:41:51;;;;;;;171.00;42.20;;;1.10;99.90;;;;;;5056736;28;20213;-81
2021/12/29 07:44:25;;;;;;;160.17;42.73;;;1.10;99.90;;;;;;5062133;28;20610;-81
2021/12/29 07:46:56;;;;;;;163.10;41.20;;;1.10;99.90;;;;;;5061992;28;20191;-76
2021/12/29 07:49:24;;;;;;;158.93;39.17;;;1.10;99.90;;;;;;5063888;28;20195;-83
2021/12/29 07:52:00;;;;;;;128.77;39.77;;;1.10;99.90;;;;;;5063301;28;20192;-79
2021/12/29 07:54:32;;;;;;;140.00;40.97;;;1.10;99.90;;;;;;5061808;28;20204;-79
2021/12/29 07:57:00;;;;;;;191.13;44.17;;;1.20;99.90;;;;;;5052821;28;20550;-78
2021/12/29 07:59:28;;;;;;;159.20;42.50;;;1.20;99.90;;;;;;5052286;28;20299;-80
2021/12/29 08:01:55;;;;;;;252.60;45.33;;;1.30;99.90;;;;;;5053124;28;20196;-79
2021/12/29 08:04:22;;;;;;;179.57;42.90;;;1.30;99.90;;;;;;5052808;28;20196;-80
2021/12/29 08:06:52;;;;;;;204.90;43.07;;;1.40;99.90;;;;;;5053278;28;20189;-81
2021/12/29 08:09:19;;;;;;;213.37;43.43;;;1.40;99.90;;;;;;5052765;28;20242;-79
2021/12/29 08:11:46;;;;;;;161.50;41.70;;;1.40;99.90;;;;;;5060137;28;20199;-78
2021/12/29 08:14:13;;;;;;;168.23;43.47;;;1.50;99.90;;;;;;5061169;28;20196;-79
2021/12/29 08:16:42;;;;;;;218.90;45.20;;;1.50;99.90;;;;;;5061062;28;20196;-80
2021/12/29 08:19:09;;;;;;;174.87;45.10;;;1.50;99.90;;;;;;5063465;28;20232;-78
2021/12/29 08:21:37;;;;;;;223.50;47.27;;;1.60;99.90;;;;;;5061780;28;20246;-82
2021/12/29 08:24:04;;;;;;;256.80;47.90;;;1.60;99.90;;;;;;5062784;28;20199;-82
2021/12/29 08:26:31;;;;;;;322.93;48.53;;;1.70;99.90;;;;;;5063214;28;20200;-78
2021/12/29 08:29:01;;;;;;;230.63;45.10;;;1.70;99.90;;;;;;5055287;28;20193;-82
2021/12/29 08:31:28;;;;;;;184.40;43.53;;;1.70;99.90;;;;;;5052968;28;20203;-79
2021/12/29 08:33:56;;;;;;;167.60;41.93;;;1.80;99.90;;;;;;5052496;28;20589;-77
2021/12/29 08:36:24;;;;;;;381.73;63.07;;;1.80;99.90;;;;;;5053330;28;20192;-80
2021/12/29 08:38:51;;;;;;;301.70;68.03;;;1.90;99.90;;;;;;5052514;28;20212;-79
2021/12/29 08:41:19;;;;;;;359.57;72.57;;;1.90;99.90;;;;;;5054502;28;20196;-78
2021/12/29 08:44:15;;;;;;;374.00;55.63;;;2.00;99.90;;;;;;5052722;28;20188;-81
2021/12/29 08:46:46;;;;;;;386.67;54.90;;;2.10;99.90;;;;;;5054447;28;20192;-79
2021/12/29 08:49:33;;;;;;;263.07;46.23;;;2.00;99.90;;;;;;5063267;28;20246;-81
2021/12/29 08:52:26;;;;;;;274.43;47.43;;;2.00;99.90;;;;;;5046245;28;20197;-82
2021/12/29 08:54:53;;;;;;;409.00;52.07;;;2.00;99.90;;;;;;5055608;28;20192;-83
2021/12/29 08:57:21;;;;;;;231.20;43.97;;;2.10;99.90;;;;;;5062146;28;20192;-81
2021/12/29 08:59:48;;;;;;;253.90;52.83;;;2.10;99.90;;;;;;5057044;28;20622;-86
2021/12/29 09:02:15;;;;;;;265.80;49.10;;;2.20;99.90;;;;;;5064824;28;20187;-85
2021/12/29 09:04:44;;;;;;;351.27;65.60;;;2.20;99.90;;;;;;5071354;28;20698;-83
2021/12/29 09:07:14;;;;;;;382.47;74.70;;;2.30;99.90;;;;;;5075399;28;20609;-87
2021/12/29 09:09:41;;;;;;;318.53;65.60;;;2.30;99.90;;;;;;5056438;28;20197;-83
2021/12/29 09:12:11;;;;;;;274.90;61.70;;;2.30;99.90;;;;;;5059575;28;20193;-85
2021/12/29 09:14:39;;;;;;;240.93;55.90;;;2.40;99.90;;;;;;5056952;28;20181;-83
2021/12/29 09:17:14;;;;;;;311.77;49.33;;;2.40;99.90;;;;;;5060253;28;20177;-86
2021/12/29 09:19:44;;;;;;;250.43;49.00;;;2.50;99.90;;;;;;5058742;28;20283;-83
2021/12/29 09:22:12;;;;;;;301.87;48.00;;;2.60;99.90;;;;;;5056210;28;20190;-84
2021/12/29 09:24:39;;;;;;;369.27;53.50;;;2.60;99.90;;;;;;5058458;28;20193;-87
2021/12/29 09:27:06;;;;;;;331.30;54.20;;;2.70;99.90;;;;;;5058875;28;20200;-82
2021/12/29 09:29:55;;;;;;;287.33;60.87;;;2.80;99.90;;;;;;5058194;28;20597;-81
2021/12/29 09:32:30;;;;;;;185.03;50.73;;;2.80;99.90;;;;;;5068608;28;20216;-85
2021/12/29 09:35:02;;;;;;;302.07;55.20;;;2.90;99.90;;;;;;5075262;28;20194;-84
2021/12/29 09:37:35;;;;;;;347.83;63.17;;;2.90;99.90;;;;;;5074574;28;20609;-86
2021/12/29 09:40:02;;;;;;;398.63;69.73;;;3.00;99.90;;;;;;5079175;28;20219;-90
2021/12/29 09:42:29;;;;;;;290.47;72.77;;;3.00;99.90;;;;;;5077456;28;20641;-86
2021/12/29 09:45:06;;;;;;;206.60;53.17;;;3.00;99.90;;;;;;5073870;28;20234;-87
2021/12/29 09:47:39;;;;;;;286.07;74.97;;;3.10;99.90;;;;;;5055592;28;20189;-85
2021/12/29 09:50:14;;;;;;;256.83;66.13;;;3.10;99.90;;;;;;5057079;28;20185;-85
2021/12/29 09:52:42;;;;;;;210.57;44.77;;;3.10;99.90;;;;;;5049381;28;20231;-85
2021/12/29 09:55:19;;;;;;;216.03;42.33;;;3.10;99.90;;;;;;5058640;28;20180;-81
2021/12/29 09:57:50;;;;;;;295.13;46.93;;;3.10;99.90;;;;;;5071680;28;20188;-84
2021/12/29 10:00:26;;;;;;;158.60;45.63;;;3.20;99.90;;;;;;5060278;28;20201;-80
2021/12/29 10:03:03;;;;;;;306.23;94.23;;;3.20;99.90;;;;;;5057539;28;20633;-80
2021/12/29 10:05:46;;;;;;;241.90;84.40;;;3.30;99.90;;;;;;5069245;28;20207;-83
2021/12/29 10:08:26;;;;;;;317.77;98.90;;;3.20;99.90;;;;;;5078527;28;20198;-83
2021/12/29 10:11:12;;;;;;;206.50;62.93;;;3.30;99.90;;;;;;5067138;28;20189;-86
2021/12/29 10:13:49;;;;;;;156.73;54.57;;;3.30;99.90;;;;;;5077709;28;20195;-84
2021/12/29 10:16:25;;;;;;;175.17;53.73;;;3.30;99.90;;;;;;5062743;28;20198;-82
2021/12/29 10:19:02;;;;;;;193.07;51.23;;;3.30;99.90;;;;;;5075224;28;20220;-85
2021/12/29 10:23:08;;;;;;;257.40;83.37;;;3.20;99.90;;;;;;5064896;27;2444286;-86
2021/12/29 10:25:49;;;;;;;320.10;96.43;;;3.30;99.90;;;;;;5141440;28;20192;-86
2021/12/29 10:28:33;;;;;;;188.93;60.37;;;3.40;99.90;;;;;;5136529;28;20250;-85
2021/12/29 10:31:04;;;;;;;233.33;71.87;;;3.40;99.90;;;;;;5131778;28;20670;-85
2021/12/29 10:33:39;;;;;;;309.43;167.30;;;3.50;99.90;;;;;;5123648;28;20241;-82
2021/12/29 10:36:15;;;;;;;317.93;127.00;;;3.50;99.90;;;;;;5145974;28;20187;-84
2021/12/29 10:38:45;;;;;;;238.70;98.30;;;3.70;99.90;;;;;;5140084;28;20240;-83
2021/12/29 10:41:21;;;;;;;221.33;68.90;;;3.70;99.90;;;;;;5141939;28;20237;-86
2021/12/29 10:44:02;;;;;;;162.00;60.10;;;3.70;99.90;;;;;;5138230;28;20207;-86
2021/12/29 10:46:33;;;;;;;142.67;47.93;;;3.70;99.90;;;;;;5139427;28;20200;-84
2021/12/29 10:49:08;;;;;;;144.63;47.03;;;3.70;99.90;;;;;;5136479;28;20274;-84
2021/12/29 10:51:51;;;;;;;140.67;50.53;;;3.60;99.90;;;;;;5135917;28;20220;-86
2021/12/29 10:54:28;;;;;;;128.87;49.90;;;3.60;99.90;;;;;;5138395;28;20192;-83
2021/12/29 10:57:02;;;;;;;148.90;51.53;;;3.60;99.90;;;;;;5138788;28;20186;-83
2021/12/29 10:59:33;;;;;;;171.70;53.93;;;3.50;99.90;;;;;;5150348;28;20255;-86
2021/12/29 11:02:08;;;;;;;173.70;49.10;;;3.50;99.90;;;;;;5144949;28;20207;-88
2021/12/29 11:04:37;;;;;;;140.50;47.10;;;3.50;99.90;;;;;;5147744;28;20191;-82
2021/12/29 11:09:52;;;;;;;157.90;49.07;;;3.70;99.90;;;;;;5095822;28;20204;-87
2021/12/29 11:12:49;;;;;;;133.57;47.57;;;3.80;99.90;;;;;;5152151;28;20186;-84
2021/12/29 11:15:21;;;;;;;154.70;49.77;;;3.80;99.90;;;;;;5145596;28;20193;-84
2021/12/29 11:17:51;;;;;;;146.30;46.47;;;3.90;99.90;;;;;;5134473;28;20971;-84
2021/12/29 11:20:21;;;;;;;178.90;60.10;;;3.90;99.90;;;;;;5143107;28;20262;-83
2021/12/29 11:23:07;;;;;;;158.83;53.67;;;3.80;99.90;;;;;;5130380;28;20340;-85
2021/12/29 11:25:45;;;;;;;179.23;62.40;;;3.90;99.90;;;;;;5135131;28;20188;-82
2021/12/29 11:28:27;;;;;;;148.10;48.90;;;3.80;99.90;;;;;;5139709;28;20177;-84
2021/12/29 11:31:07;;;;;;;138.10;46.93;;;3.90;99.90;;;;;;5127297;28;20169;-81
2021/12/29 11:33:35;;;;;;;138.33;47.60;;;3.90;99.90;;;;;;5126932;28;20241;-82
2021/12/29 11:36:20;;;;;;;155.77;47.50;;;4.00;99.90;;;;;;5124918;28;20599;-83
2021/12/29 11:38:48;;;;;;;148.13;42.70;;;4.10;99.90;;;;;;5128410;28;20230;-82
2021/12/29 11:41:19;;;;;;;151.13;47.17;;;4.20;99.90;;;;;;5125636;28;20678;-83
2021/12/29 11:43:52;;;;;;;175.17;51.77;;;4.20;99.90;;;;;;5106033;28;20183;-87
2021/12/29 11:46:24;;;;;;;156.97;47.20;;;4.10;99.90;;;;;;5109380;28;20422;-88
2021/12/29 11:48:53;;;;;;;160.33;46.63;;;4.10;99.90;;;;;;5121656;28;20167;-81
2021/12/29 11:51:31;;;;;;;255.53;65.90;;;4.00;99.90;;;;;;5124315;28;20211;-81
2021/12/29 11:54:07;;;;;;;341.07;146.30;;;3.90;99.90;;;;;;5118118;28;20189;-82
2021/12/29 11:56:44;;;;;;;467.47;201.60;;;3.80;99.90;;;;;;5120096;28;20188;-82
2021/12/29 11:59:11;;;;;;;173.70;59.13;;;3.70;99.90;;;;;;5119063;28;20235;-82
2021/12/29 12:01:53;;;;;;;151.20;51.80;;;3.60;99.90;;;;;;5116746;28;20577;-81
2021/12/29 12:04:21;;;;;;;153.17;47.53;;;3.60;99.90;;;;;;5121514;28;20172;-82
2021/12/29 13:37:39;;;;;;;212.23;52.33;;;3.10;99.90;;;;;;5112546;28;20254;-80
2021/12/29 13:40:09;;;;;;;277.53;51.53;;;3.00;99.90;;;;;;5117953;28;20202;-81
2021/12/29 13:42:44;;;;;;;224.10;50.30;;;3.00;99.90;;;;;;5121557;28;20207;-79
2021/12/29 13:45:27;;;;;;;305.90;54.57;;;3.00;99.90;;;;;;5121328;28;20217;-80
2021/12/29 13:47:54;;;;;;;335.80;63.23;;;3.00;99.90;;;;;;5114702;28;20737;-84
2021/12/29 13:50:24;;;;;;;294.20;59.70;;;3.00;99.90;;;;;;5121246;28;20197;-81
2021/12/29 13:53:02;;;;;;;295.47;55.63;;;3.00;99.90;;;;;;5119809;28;20187;-81
2021/12/29 13:55:33;;;;;;;224.30;56.37;;;3.00;99.90;;;;;;5103519;28;20191;-80
2021/12/29 13:58:00;;;;;;;444.77;121.57;;;3.00;99.90;;;;;;5100834;28;20191;-80
2021/12/29 14:00:28;;;;;;;660.50;157.97;;;3.00;99.90;;;;;;5100117;28;20192;-80
2021/12/29 14:02:55;;;;;;;489.67;119.40;;;2.90;99.90;;;;;;5120874;28;20272;-79
2021/12/29 14:05:35;;;;;;;544.37;162.80;;;2.90;99.90;;;;;;5118986;28;20646;-80
2021/12/29 14:08:05;;;;;;;597.63;270.27;;;2.90;99.90;;;;;;5099859;28;20609;-84
2021/12/29 14:10:40;;;;;;;575.33;227.43;;;2.90;99.90;;;;;;5101209;28;20184;-78
2021/12/29 14:13:10;;;;;;;734.43;346.60;;;2.90;99.90;;;;;;5102256;28;20194;-80
2021/12/29 14:15:39;;;;;;;618.03;268.83;;;2.90;99.90;;;;;;5100835;28;20195;-84
2021/12/29 14:18:16;;;;;;;495.33;145.23;;;2.80;99.90;;;;;;5117665;28;20194;-81